sensor_id;sensor_type;location;lat;lon;timestamp;P1;durP1;ratioP1;P2;durP2;ratioP2
68940;SDS011;55982;51.476;7.552;2023-01-05T00:01:13;26.52;;;5.72;;
68940;SDS011;55982;51.476;7.552;2023-01-05T00:03:39;23.48;;;5.65;;
68940;SDS011;55982;51.476;7.552;2023-01-05T00:06:14;22.33;;;5.10;;
68940;SDS011;55982;51.476;7.552;2023-01-05T00:08:41;27.45;;;5.55;;
68940;SDS011;55982;51.476;7.552;2023-01-05T00:11:12;18.92;;;4.82;;
68940;SDS011;55982;51.476;7.552;2023-01-05T00:14:01;26.77;;;6.15;;
68940;SDS011;55982;51.476;7.552;2023-01-05T00:16:45;30.67;;;5.60;;
68940;SDS011;55982;51.476;7.552;2023-01-05T00:19:29;28.52;;;5.75;;
68940;SDS011;55982;51.476;7.552;2023-01-05T00:24:54;29.33;;;5.65;;
68940;SDS011;55982;51.476;7.552;2023-01-05T00:27:20;30.42;;;5.90;;
68940;SDS011;55982;51.476;7.552;2023-01-05T00:29:46;25.95;;;5.35;;
68940;SDS011;55982;51.476;7.552;2023-01-05T00:32:11;26.88;;;5.85;;
68940;SDS011;55982;51.476;7.552;2023-01-05T00:34:36;27.25;;;5.63;;
68940;SDS011;55982;51.476;7.552;2023-01-05T00:37:02;25.00;;;5.90;;
68940;SDS011;55982;51.476;7.552;2023-01-05T00:39:27;29.42;;;5.90;;
68940;SDS011;55982;51.476;7.552;2023-01-05T00:41:52;23.52;;;4.95;;
68940;SDS011;55982;51.476;7.552;2023-01-05T00:44:17;30.13;;;6.30;;
68940;SDS011;55982;51.476;7.552;2023-01-05T00:46:43;30.17;;;6.10;;
68940;SDS011;55982;51.476;7.552;2023-01-05T00:49:08;26.65;;;5.80;;
68940;SDS011;55982;51.476;7.552;2023-01-05T00:51:33;22.05;;;5.00;;
68940;SDS011;55982;51.476;7.552;2023-01-05T00:53:59;25.30;;;5.05;;
68940;SDS011;55982;51.476;7.552;2023-01-05T00:56:26;28.08;;;5.43;;
68940;SDS011;55982;51.476;7.552;2023-01-05T00:58:52;28.45;;;6.30;;
68940;SDS011;55982;51.476;7.552;2023-01-05T01:01:18;23.63;;;5.75;;
68940;SDS011;55982;51.476;7.552;2023-01-05T01:03:46;28.30;;;6.28;;
68940;SDS011;55982;51.476;7.552;2023-01-05T01:06:11;31.25;;;5.93;;
68940;SDS011;55982;51.476;7.552;2023-01-05T01:08:37;27.17;;;5.85;;
68940;SDS011;55982;51.476;7.552;2023-01-05T01:11:06;31.00;;;6.32;;
68940;SDS011;55982;51.476;7.552;2023-01-05T01:13:32;28.27;;;5.45;;
68940;SDS011;55982;51.476;7.552;2023-01-05T01:16:03;26.58;;;6.63;;
68940;SDS011;55982;51.476;7.552;2023-01-05T01:18:30;28.08;;;5.82;;
68940;SDS011;55982;51.476;7.552;2023-01-05T01:20:55;39.58;;;7.47;;
68940;SDS011;55982;51.476;7.552;2023-01-05T01:23:20;30.00;;;6.40;;
68940;SDS011;55982;51.476;7.552;2023-01-05T01:25:46;26.63;;;7.05;;
68940;SDS011;55982;51.476;7.552;2023-01-05T01:28:11;27.88;;;5.82;;
68940;SDS011;55982;51.476;7.552;2023-01-05T01:30:37;25.42;;;6.55;;
68940;SDS011;55982;51.476;7.552;2023-01-05T01:33:03;26.60;;;7.10;;
68940;SDS011;55982;51.476;7.552;2023-01-05T01:35:28;31.90;;;7.00;;
68940;SDS011;55982;51.476;7.552;2023-01-05T01:37:53;33.47;;;7.72;;
68940;SDS011;55982;51.476;7.552;2023-01-05T01:40:19;28.45;;;6.97;;
68940;SDS011;55982;51.476;7.552;2023-01-05T01:42:44;30.95;;;7.18;;
68940;SDS011;55982;51.476;7.552;2023-01-05T01:45:22;27.33;;;7.90;;
68940;SDS011;55982;51.476;7.552;2023-01-05T01:47:58;30.08;;;7.65;;
68940;SDS011;55982;51.476;7.552;2023-01-05T01:52:51;26.93;;;6.00;;
68940;SDS011;55982;51.476;7.552;2023-01-05T01:55:22;23.70;;;6.03;;
68940;SDS011;55982;51.476;7.552;2023-01-05T01:57:48;25.33;;;5.25;;
68940;SDS011;55982;51.476;7.552;2023-01-05T02:00:15;28.45;;;5.90;;
68940;SDS011;55982;51.476;7.552;2023-01-05T02:02:43;34.10;;;6.30;;
68940;SDS011;55982;51.476;7.552;2023-01-05T02:05:10;23.60;;;5.75;;
68940;SDS011;55982;51.476;7.552;2023-01-05T02:07:38;34.67;;;5.55;;
68940;SDS011;55982;51.476;7.552;2023-01-05T02:10:07;30.55;;;6.53;;
68940;SDS011;55982;51.476;7.552;2023-01-05T02:12:37;32.47;;;6.25;;
68940;SDS011;55982;51.476;7.552;2023-01-05T02:20:32;30.33;;;5.85;;
68940;SDS011;55982;51.476;7.552;2023-01-05T02:31:32;35.90;;;7.53;;
68940;SDS011;55982;51.476;7.552;2023-01-05T02:34:08;37.33;;;7.38;;
68940;SDS011;55982;51.476;7.552;2023-01-05T02:37:11;35.60;;;6.65;;
68940;SDS011;55982;51.476;7.552;2023-01-05T02:39:59;30.70;;;6.85;;
68940;SDS011;55982;51.476;7.552;2023-01-05T02:42:31;31.92;;;6.82;;
68940;SDS011;55982;51.476;7.552;2023-01-05T02:47:36;34.95;;;7.18;;
68940;SDS011;55982;51.476;7.552;2023-01-05T02:50:04;31.83;;;6.60;;
68940;SDS011;55982;51.476;7.552;2023-01-05T02:55:29;32.10;;;7.07;;
68940;SDS011;55982;51.476;7.552;2023-01-05T02:58:04;32.70;;;6.85;;
68940;SDS011;55982;51.476;7.552;2023-01-05T03:00:38;29.63;;;6.78;;
68940;SDS011;55982;51.476;7.552;2023-01-05T03:03:32;26.67;;;6.97;;
68940;SDS011;55982;51.476;7.552;2023-01-05T03:08:32;29.77;;;7.47;;
68940;SDS011;55982;51.476;7.552;2023-01-05T03:11:06;27.67;;;6.45;;
68940;SDS011;55982;51.476;7.552;2023-01-05T03:13:58;38.70;;;6.97;;
68940;SDS011;55982;51.476;7.552;2023-01-05T03:16:33;25.02;;;6.50;;
68940;SDS011;55982;51.476;7.552;2023-01-05T03:19:01;31.90;;;6.95;;
68940;SDS011;55982;51.476;7.552;2023-01-05T03:21:48;39.47;;;7.70;;
68940;SDS011;55982;51.476;7.552;2023-01-05T03:24:35;33.05;;;6.75;;
68940;SDS011;55982;51.476;7.552;2023-01-05T03:27:21;29.85;;;6.85;;
68940;SDS011;55982;51.476;7.552;2023-01-05T03:30:07;28.05;;;7.43;;
68940;SDS011;55982;51.476;7.552;2023-01-05T03:33:06;26.67;;;6.28;;
68940;SDS011;55982;51.476;7.552;2023-01-05T03:35:57;25.08;;;6.78;;
68940;SDS011;55982;51.476;7.552;2023-01-05T03:41:04;32.75;;;6.93;;
68940;SDS011;55982;51.476;7.552;2023-01-05T03:43:34;26.63;;;6.50;;
68940;SDS011;55982;51.476;7.552;2023-01-05T03:46:01;30.05;;;6.85;;
68940;SDS011;55982;51.476;7.552;2023-01-05T03:48:34;37.10;;;7.80;;
68940;SDS011;55982;51.476;7.552;2023-01-05T03:50:59;38.97;;;7.90;;
68940;SDS011;55982;51.476;7.552;2023-01-05T03:53:25;27.63;;;7.03;;
68940;SDS011;55982;51.476;7.552;2023-01-05T03:55:50;31.05;;;8.50;;
68940;SDS011;55982;51.476;7.552;2023-01-05T03:58:15;37.83;;;8.48;;
68940;SDS011;55982;51.476;7.552;2023-01-05T04:00:41;35.63;;;8.68;;
68940;SDS011;55982;51.476;7.552;2023-01-05T04:03:06;33.38;;;7.60;;
68940;SDS011;55982;51.476;7.552;2023-01-05T04:05:34;34.85;;;7.57;;
68940;SDS011;55982;51.476;7.552;2023-01-05T04:07:59;36.00;;;7.65;;
68940;SDS011;55982;51.476;7.552;2023-01-05T04:10:25;43.08;;;8.40;;
68940;SDS011;55982;51.476;7.552;2023-01-05T04:12:50;40.33;;;8.52;;
68940;SDS011;55982;51.476;7.552;2023-01-05T04:15:16;31.95;;;7.40;;
68940;SDS011;55982;51.476;7.552;2023-01-05T04:17:41;35.28;;;8.07;;
68940;SDS011;55982;51.476;7.552;2023-01-05T04:20:06;42.80;;;9.90;;
68940;SDS011;55982;51.476;7.552;2023-01-05T04:22:32;36.85;;;9.38;;
68940;SDS011;55982;51.476;7.552;2023-01-05T04:24:58;45.40;;;9.38;;
68940;SDS011;55982;51.476;7.552;2023-01-05T04:27:23;37.72;;;8.68;;
68940;SDS011;55982;51.476;7.552;2023-01-05T04:29:48;38.63;;;9.02;;
68940;SDS011;55982;51.476;7.552;2023-01-05T04:32:14;40.10;;;10.10;;
68940;SDS011;55982;51.476;7.552;2023-01-05T04:34:39;42.60;;;9.77;;
68940;SDS011;55982;51.476;7.552;2023-01-05T04:37:04;47.55;;;9.73;;
68940;SDS011;55982;51.476;7.552;2023-01-05T04:39:30;45.00;;;9.82;;
68940;SDS011;55982;51.476;7.552;2023-01-05T04:41:55;33.75;;;8.57;;
68940;SDS011;55982;51.476;7.552;2023-01-05T04:44:20;34.90;;;9.50;;
68940;SDS011;55982;51.476;7.552;2023-01-05T04:46:46;37.28;;;8.43;;
68940;SDS011;55982;51.476;7.552;2023-01-05T04:49:11;40.40;;;10.15;;
68940;SDS011;55982;51.476;7.552;2023-01-05T04:51:36;41.45;;;10.70;;
68940;SDS011;55982;51.476;7.552;2023-01-05T04:54:02;38.22;;;10.23;;
68940;SDS011;55982;51.476;7.552;2023-01-05T04:56:27;44.42;;;10.98;;
68940;SDS011;55982;51.476;7.552;2023-01-05T04:58:53;40.30;;;10.63;;
68940;SDS011;55982;51.476;7.552;2023-01-05T05:01:18;35.60;;;9.27;;
68940;SDS011;55982;51.476;7.552;2023-01-05T05:03:43;43.38;;;9.85;;
68940;SDS011;55982;51.476;7.552;2023-01-05T05:06:09;41.92;;;9.60;;
68940;SDS011;55982;51.476;7.552;2023-01-05T05:08:34;41.58;;;9.75;;
68940;SDS011;55982;51.476;7.552;2023-01-05T05:10:59;34.47;;;9.27;;
68940;SDS011;55982;51.476;7.552;2023-01-05T05:13:25;35.45;;;9.88;;
68940;SDS011;55982;51.476;7.552;2023-01-05T05:15:50;50.38;;;10.23;;
68940;SDS011;55982;51.476;7.552;2023-01-05T05:18:16;40.45;;;10.52;;
68940;SDS011;55982;51.476;7.552;2023-01-05T05:20:41;39.28;;;9.32;;
68940;SDS011;55982;51.476;7.552;2023-01-05T05:23:09;46.83;;;10.27;;
68940;SDS011;55982;51.476;7.552;2023-01-05T05:25:34;34.70;;;9.82;;
68940;SDS011;55982;51.476;7.552;2023-01-05T05:27:59;45.67;;;10.20;;
68940;SDS011;55982;51.476;7.552;2023-01-05T05:30:25;43.38;;;9.93;;
68940;SDS011;55982;51.476;7.552;2023-01-05T05:32:50;39.17;;;9.75;;
68940;SDS011;55982;51.476;7.552;2023-01-05T05:35:16;30.88;;;9.38;;
68940;SDS011;55982;51.476;7.552;2023-01-05T05:37:41;38.78;;;9.80;;
68940;SDS011;55982;51.476;7.552;2023-01-05T05:40:06;42.80;;;9.85;;
68940;SDS011;55982;51.476;7.552;2023-01-05T05:42:32;35.90;;;9.88;;
68940;SDS011;55982;51.476;7.552;2023-01-05T05:44:58;35.10;;;9.15;;
68940;SDS011;55982;51.476;7.552;2023-01-05T05:47:23;38.65;;;9.95;;
68940;SDS011;55982;51.476;7.552;2023-01-05T05:49:48;38.60;;;9.27;;
68940;SDS011;55982;51.476;7.552;2023-01-05T05:52:14;41.88;;;8.63;;
68940;SDS011;55982;51.476;7.552;2023-01-05T05:54:39;45.60;;;9.90;;
68940;SDS011;55982;51.476;7.552;2023-01-05T05:57:04;43.90;;;10.00;;
68940;SDS011;55982;51.476;7.552;2023-01-05T05:59:30;37.92;;;9.48;;
68940;SDS011;55982;51.476;7.552;2023-01-05T06:01:55;36.85;;;9.32;;
68940;SDS011;55982;51.476;7.552;2023-01-05T06:04:20;43.60;;;10.02;;
68940;SDS011;55982;51.476;7.552;2023-01-05T06:06:46;42.45;;;9.77;;
68940;SDS011;55982;51.476;7.552;2023-01-05T06:09:11;34.40;;;8.85;;
68940;SDS011;55982;51.476;7.552;2023-01-05T06:11:37;43.35;;;10.60;;
68940;SDS011;55982;51.476;7.552;2023-01-05T06:14:05;39.63;;;10.23;;
68940;SDS011;55982;51.476;7.552;2023-01-05T06:16:31;55.15;;;11.32;;
68940;SDS011;55982;51.476;7.552;2023-01-05T06:18:57;51.25;;;10.38;;
68940;SDS011;55982;51.476;7.552;2023-01-05T06:21:22;45.40;;;12.23;;
68940;SDS011;55982;51.476;7.552;2023-01-05T06:23:48;46.03;;;11.65;;
68940;SDS011;55982;51.476;7.552;2023-01-05T06:26:13;42.97;;;10.48;;
68940;SDS011;55982;51.476;7.552;2023-01-05T06:28:38;52.55;;;11.82;;
68940;SDS011;55982;51.476;7.552;2023-01-05T06:31:04;46.13;;;12.27;;
68940;SDS011;55982;51.476;7.552;2023-01-05T06:33:29;50.28;;;12.25;;
68940;SDS011;55982;51.476;7.552;2023-01-05T06:35:55;55.08;;;13.20;;
68940;SDS011;55982;51.476;7.552;2023-01-05T06:38:22;56.20;;;15.90;;
68940;SDS011;55982;51.476;7.552;2023-01-05T06:40:48;51.03;;;13.32;;
68940;SDS011;55982;51.476;7.552;2023-01-05T06:43:13;52.35;;;12.63;;
68940;SDS011;55982;51.476;7.552;2023-01-05T06:45:40;57.15;;;11.57;;
68940;SDS011;55982;51.476;7.552;2023-01-05T06:48:06;53.83;;;12.43;;
68940;SDS011;55982;51.476;7.552;2023-01-05T06:50:31;52.50;;;13.13;;
68940;SDS011;55982;51.476;7.552;2023-01-05T06:52:57;48.90;;;11.50;;
68940;SDS011;55982;51.476;7.552;2023-01-05T06:55:23;51.28;;;14.27;;
68940;SDS011;55982;51.476;7.552;2023-01-05T06:57:48;45.78;;;12.40;;
68940;SDS011;55982;51.476;7.552;2023-01-05T07:00:14;62.47;;;14.15;;
68940;SDS011;55982;51.476;7.552;2023-01-05T07:02:40;49.00;;;12.05;;
68940;SDS011;55982;51.476;7.552;2023-01-05T07:05:06;57.00;;;14.35;;
68940;SDS011;55982;51.476;7.552;2023-01-05T07:07:32;59.55;;;14.55;;
68940;SDS011;55982;51.476;7.552;2023-01-05T07:09:57;52.85;;;14.90;;
68940;SDS011;55982;51.476;7.552;2023-01-05T07:12:23;52.08;;;14.20;;
68940;SDS011;55982;51.476;7.552;2023-01-05T07:14:48;51.88;;;15.20;;
68940;SDS011;55982;51.476;7.552;2023-01-05T07:17:14;57.40;;;15.65;;
68940;SDS011;55982;51.476;7.552;2023-01-05T07:19:39;53.65;;;15.40;;
68940;SDS011;55982;51.476;7.552;2023-01-05T07:22:04;52.47;;;15.70;;
68940;SDS011;55982;51.476;7.552;2023-01-05T07:24:30;49.75;;;14.13;;
68940;SDS011;55982;51.476;7.552;2023-01-05T07:26:57;54.05;;;16.27;;
68940;SDS011;55982;51.476;7.552;2023-01-05T07:29:23;58.08;;;15.50;;
68940;SDS011;55982;51.476;7.552;2023-01-05T07:31:48;44.78;;;15.00;;
68940;SDS011;55982;51.476;7.552;2023-01-05T07:34:16;62.13;;;15.65;;
68940;SDS011;55982;51.476;7.552;2023-01-05T07:36:42;45.83;;;16.08;;
68940;SDS011;55982;51.476;7.552;2023-01-05T07:39:07;52.00;;;15.43;;
68940;SDS011;55982;51.476;7.552;2023-01-05T07:41:32;51.72;;;14.93;;
68940;SDS011;55982;51.476;7.552;2023-01-05T07:43:58;49.65;;;21.25;;
68940;SDS011;55982;51.476;7.552;2023-01-05T07:46:23;43.50;;;13.70;;
68940;SDS011;55982;51.476;7.552;2023-01-05T07:48:50;50.10;;;16.55;;
68940;SDS011;55982;51.476;7.552;2023-01-05T07:51:15;42.35;;;14.27;;
68940;SDS011;55982;51.476;7.552;2023-01-05T07:53:42;55.35;;;16.10;;
68940;SDS011;55982;51.476;7.552;2023-01-05T07:56:08;56.28;;;17.75;;
68940;SDS011;55982;51.476;7.552;2023-01-05T07:58:35;55.08;;;17.52;;
68940;SDS011;55982;51.476;7.552;2023-01-05T08:01:04;48.78;;;17.20;;
68940;SDS011;55982;51.476;7.552;2023-01-05T08:03:31;65.15;;;18.20;;
68940;SDS011;55982;51.476;7.552;2023-01-05T08:05:57;60.97;;;19.15;;
68940;SDS011;55982;51.476;7.552;2023-01-05T08:08:22;72.45;;;25.10;;
68940;SDS011;55982;51.476;7.552;2023-01-05T08:10:48;55.55;;;18.23;;
68940;SDS011;55982;51.476;7.552;2023-01-05T08:13:13;56.50;;;18.38;;
68940;SDS011;55982;51.476;7.552;2023-01-05T08:15:57;58.53;;;17.45;;
68940;SDS011;55982;51.476;7.552;2023-01-05T08:18:24;61.67;;;19.15;;
68940;SDS011;55982;51.476;7.552;2023-01-05T08:20:53;71.43;;;19.50;;
68940;SDS011;55982;51.476;7.552;2023-01-05T08:23:28;63.70;;;18.50;;
68940;SDS011;55982;51.476;7.552;2023-01-05T08:25:55;60.63;;;18.38;;
68940;SDS011;55982;51.476;7.552;2023-01-05T08:28:24;59.90;;;19.38;;
68940;SDS011;55982;51.476;7.552;2023-01-05T08:30:50;60.47;;;18.75;;
68940;SDS011;55982;51.476;7.552;2023-01-05T08:33:15;60.13;;;18.92;;
68940;SDS011;55982;51.476;7.552;2023-01-05T08:35:42;62.35;;;20.27;;
68940;SDS011;55982;51.476;7.552;2023-01-05T08:38:09;73.57;;;19.58;;
68940;SDS011;55982;51.476;7.552;2023-01-05T08:40:36;63.97;;;19.10;;
68940;SDS011;55982;51.476;7.552;2023-01-05T08:43:02;66.50;;;21.02;;
68940;SDS011;55982;51.476;7.552;2023-01-05T08:45:29;60.17;;;18.48;;
68940;SDS011;55982;51.476;7.552;2023-01-05T08:47:55;66.68;;;20.27;;
68940;SDS011;55982;51.476;7.552;2023-01-05T08:50:20;65.78;;;19.45;;
68940;SDS011;55982;51.476;7.552;2023-01-05T08:52:46;63.95;;;19.75;;
68940;SDS011;55982;51.476;7.552;2023-01-05T08:55:11;58.55;;;19.15;;
68940;SDS011;55982;51.476;7.552;2023-01-05T08:57:37;56.67;;;17.80;;
68940;SDS011;55982;51.476;7.552;2023-01-05T09:00:02;49.78;;;16.70;;
68940;SDS011;55982;51.476;7.552;2023-01-05T09:02:30;57.47;;;17.38;;
68940;SDS011;55982;51.476;7.552;2023-01-05T09:04:55;57.45;;;17.10;;
68940;SDS011;55982;51.476;7.552;2023-01-05T09:07:21;56.75;;;16.90;;
68940;SDS011;55982;51.476;7.552;2023-01-05T09:09:46;56.42;;;17.45;;
68940;SDS011;55982;51.476;7.552;2023-01-05T09:12:12;58.53;;;17.52;;
68940;SDS011;55982;51.476;7.552;2023-01-05T09:14:39;43.47;;;15.73;;
68940;SDS011;55982;51.476;7.552;2023-01-05T09:17:04;60.97;;;16.58;;
68940;SDS011;55982;51.476;7.552;2023-01-05T09:19:30;50.50;;;15.63;;
68940;SDS011;55982;51.476;7.552;2023-01-05T09:21:56;49.83;;;16.70;;
68940;SDS011;55982;51.476;7.552;2023-01-05T09:24:22;52.20;;;15.20;;
68940;SDS011;55982;51.476;7.552;2023-01-05T09:26:48;53.38;;;15.63;;
68940;SDS011;55982;51.476;7.552;2023-01-05T09:29:14;42.25;;;15.02;;
68940;SDS011;55982;51.476;7.552;2023-01-05T09:31:40;44.47;;;15.80;;
68940;SDS011;55982;51.476;7.552;2023-01-05T09:34:05;64.03;;;16.48;;
68940;SDS011;55982;51.476;7.552;2023-01-05T09:36:31;53.03;;;14.45;;
68940;SDS011;55982;51.476;7.552;2023-01-05T09:38:58;50.20;;;14.88;;
68940;SDS011;55982;51.476;7.552;2023-01-05T09:41:31;59.83;;;16.02;;
68940;SDS011;55982;51.476;7.552;2023-01-05T09:46:40;52.88;;;16.45;;
68940;SDS011;55982;51.476;7.552;2023-01-05T09:49:13;58.65;;;15.73;;
68940;SDS011;55982;51.476;7.552;2023-01-05T09:51:39;50.20;;;13.88;;
68940;SDS011;55982;51.476;7.552;2023-01-05T09:54:06;60.55;;;14.38;;
68940;SDS011;55982;51.476;7.552;2023-01-05T09:56:42;48.53;;;15.20;;
68940;SDS011;55982;51.476;7.552;2023-01-05T09:59:24;55.65;;;16.35;;
68940;SDS011;55982;51.476;7.552;2023-01-05T10:01:58;59.65;;;17.23;;
68940;SDS011;55982;51.476;7.552;2023-01-05T10:04:26;64.50;;;17.38;;
68940;SDS011;55982;51.476;7.552;2023-01-05T10:07:04;49.08;;;15.38;;
68940;SDS011;55982;51.476;7.552;2023-01-05T10:09:34;64.75;;;17.10;;
68940;SDS011;55982;51.476;7.552;2023-01-05T10:12:20;63.35;;;16.25;;
68940;SDS011;55982;51.476;7.552;2023-01-05T10:15:11;55.33;;;15.60;;
68940;SDS011;55982;51.476;7.552;2023-01-05T10:17:40;61.58;;;17.02;;
68940;SDS011;55982;51.476;7.552;2023-01-05T10:20:49;52.33;;;16.63;;
68940;SDS011;55982;51.476;7.552;2023-01-05T10:26:00;48.03;;;15.15;;
68940;SDS011;55982;51.476;7.552;2023-01-05T10:28:39;59.63;;;17.15;;
68940;SDS011;55982;51.476;7.552;2023-01-05T10:31:18;49.53;;;15.20;;
68940;SDS011;55982;51.476;7.552;2023-01-05T10:34:23;61.72;;;16.50;;
68940;SDS011;55982;51.476;7.552;2023-01-05T10:45:13;53.33;;;15.13;;
68940;SDS011;55982;51.476;7.552;2023-01-05T10:47:40;53.95;;;15.73;;
68940;SDS011;55982;51.476;7.552;2023-01-05T10:50:26;49.33;;;15.57;;
68940;SDS011;55982;51.476;7.552;2023-01-05T10:53:07;52.38;;;15.15;;
68940;SDS011;55982;51.476;7.552;2023-01-05T10:55:44;51.88;;;15.27;;
68940;SDS011;55982;51.476;7.552;2023-01-05T10:58:25;49.03;;;15.93;;
68940;SDS011;55982;51.476;7.552;2023-01-05T11:00:57;56.85;;;15.63;;
68940;SDS011;55982;51.476;7.552;2023-01-05T11:06:05;57.40;;;14.77;;
68940;SDS011;55982;51.476;7.552;2023-01-05T11:08:33;51.30;;;13.95;;
68940;SDS011;55982;51.476;7.552;2023-01-05T11:11:06;55.67;;;15.90;;
68940;SDS011;55982;51.476;7.552;2023-01-05T11:13:35;52.20;;;14.15;;
68940;SDS011;55982;51.476;7.552;2023-01-05T11:18:34;50.25;;;14.45;;
68940;SDS011;55982;51.476;7.552;2023-01-05T11:21:10;45.10;;;13.07;;
68940;SDS011;55982;51.476;7.552;2023-01-05T11:23:41;52.65;;;14.60;;
68940;SDS011;55982;51.476;7.552;2023-01-05T11:34:14;44.30;;;12.85;;
68940;SDS011;55982;51.476;7.552;2023-01-05T11:36:41;47.50;;;12.40;;
68940;SDS011;55982;51.476;7.552;2023-01-05T11:39:15;48.55;;;15.90;;
68940;SDS011;55982;51.476;7.552;2023-01-05T11:42:09;44.67;;;12.38;;
68940;SDS011;55982;51.476;7.552;2023-01-05T11:44:40;37.58;;;11.20;;
68940;SDS011;55982;51.476;7.552;2023-01-05T11:47:08;42.92;;;12.23;;
68940;SDS011;55982;51.476;7.552;2023-01-05T11:49:41;39.28;;;12.70;;
68940;SDS011;55982;51.476;7.552;2023-01-05T11:52:22;58.75;;;12.10;;
68940;SDS011;55982;51.476;7.552;2023-01-05T11:54:49;38.38;;;11.57;;
68940;SDS011;55982;51.476;7.552;2023-01-05T11:57:16;37.40;;;10.82;;
68940;SDS011;55982;51.476;7.552;2023-01-05T11:59:46;34.03;;;10.32;;
68940;SDS011;55982;51.476;7.552;2023-01-05T12:02:25;34.63;;;10.88;;
68940;SDS011;55982;51.476;7.552;2023-01-05T12:05:27;31.80;;;11.00;;
68940;SDS011;55982;51.476;7.552;2023-01-05T12:08:04;34.85;;;10.50;;
68940;SDS011;55982;51.476;7.552;2023-01-05T12:16:02;43.97;;;10.63;;
68940;SDS011;55982;51.476;7.552;2023-01-05T12:21:24;37.35;;;10.40;;
68940;SDS011;55982;51.476;7.552;2023-01-05T12:43:47;43.75;;;10.63;;
68940;SDS011;55982;51.476;7.552;2023-01-05T12:49:02;36.53;;;9.10;;
68940;SDS011;55982;51.476;7.552;2023-01-05T12:51:36;34.22;;;11.18;;
68940;SDS011;55982;51.476;7.552;2023-01-05T12:54:28;36.47;;;10.98;;
68940;SDS011;55982;51.476;7.552;2023-01-05T12:57:10;33.80;;;8.55;;
68940;SDS011;55982;51.476;7.552;2023-01-05T13:02:46;38.70;;;7.38;;
68940;SDS011;55982;51.476;7.552;2023-01-05T13:05:25;35.80;;;8.45;;
68940;SDS011;55982;51.476;7.552;2023-01-05T13:10:51;34.97;;;8.32;;
68940;SDS011;55982;51.476;7.552;2023-01-05T13:13:45;27.25;;;7.00;;
68940;SDS011;55982;51.476;7.552;2023-01-05T13:18:51;37.67;;;7.72;;
68940;SDS011;55982;51.476;7.552;2023-01-05T13:21:21;28.50;;;6.60;;
68940;SDS011;55982;51.476;7.552;2023-01-05T13:23:54;30.17;;;7.35;;
68940;SDS011;55982;51.476;7.552;2023-01-05T13:26:25;27.33;;;6.78;;
68940;SDS011;55982;51.476;7.552;2023-01-05T13:28:52;27.83;;;7.32;;
68940;SDS011;55982;51.476;7.552;2023-01-05T13:48:47;25.48;;;6.38;;
68940;SDS011;55982;51.476;7.552;2023-01-05T13:54:01;33.85;;;6.25;;
68940;SDS011;55982;51.476;7.552;2023-01-05T13:56:31;34.58;;;5.47;;
68940;SDS011;55982;51.476;7.552;2023-01-05T13:59:02;24.02;;;5.20;;
68940;SDS011;55982;51.476;7.552;2023-01-05T14:01:35;26.45;;;5.45;;
68940;SDS011;55982;51.476;7.552;2023-01-05T14:04:03;27.40;;;5.53;;
68940;SDS011;55982;51.476;7.552;2023-01-05T14:06:41;26.45;;;5.55;;
68940;SDS011;55982;51.476;7.552;2023-01-05T14:09:43;29.10;;;5.93;;
68940;SDS011;55982;51.476;7.552;2023-01-05T14:22:54;32.70;;;8.80;;
68940;SDS011;55982;51.476;7.552;2023-01-05T14:30:41;38.53;;;10.48;;
68940;SDS011;55982;51.476;7.552;2023-01-05T14:33:07;104.40;;;37.60;;
68940;SDS011;55982;51.476;7.552;2023-01-05T14:35:34;39.20;;;11.18;;
68940;SDS011;55982;51.476;7.552;2023-01-05T14:38:01;34.88;;;9.85;;
68940;SDS011;55982;51.476;7.552;2023-01-05T14:43:05;33.97;;;10.85;;
68940;SDS011;55982;51.476;7.552;2023-01-05T14:48:33;46.38;;;11.40;;
68940;SDS011;55982;51.476;7.552;2023-01-05T14:51:05;36.83;;;11.90;;
68940;SDS011;55982;51.476;7.552;2023-01-05T14:53:46;35.60;;;11.32;;
68940;SDS011;55982;51.476;7.552;2023-01-05T14:56:15;39.78;;;11.68;;
68940;SDS011;55982;51.476;7.552;2023-01-05T15:03:54;33.80;;;11.55;;
68940;SDS011;55982;51.476;7.552;2023-01-05T15:11:52;42.50;;;12.15;;
68940;SDS011;55982;51.476;7.552;2023-01-05T15:14:43;41.72;;;10.88;;
68940;SDS011;55982;51.476;7.552;2023-01-05T15:23:04;34.80;;;10.68;;
68940;SDS011;55982;51.476;7.552;2023-01-05T15:31:35;38.38;;;11.48;;
68940;SDS011;55982;51.476;7.552;2023-01-05T15:39:36;37.97;;;10.38;;
68940;SDS011;55982;51.476;7.552;2023-01-05T15:42:25;31.00;;;9.70;;
68940;SDS011;55982;51.476;7.552;2023-01-05T15:45:00;34.20;;;10.02;;
68940;SDS011;55982;51.476;7.552;2023-01-05T15:47:26;32.45;;;9.85;;
68940;SDS011;55982;51.476;7.552;2023-01-05T15:49:57;32.38;;;9.00;;
68940;SDS011;55982;51.476;7.552;2023-01-05T15:52:35;37.60;;;9.25;;
68940;SDS011;55982;51.476;7.552;2023-01-05T15:57:38;31.17;;;9.98;;
68940;SDS011;55982;51.476;7.552;2023-01-05T16:00:17;26.48;;;9.05;;
68940;SDS011;55982;51.476;7.552;2023-01-05T16:02:44;27.48;;;8.55;;
68940;SDS011;55982;51.476;7.552;2023-01-05T16:10:18;32.25;;;9.25;;
68940;SDS011;55982;51.476;7.552;2023-01-05T16:12:48;30.58;;;8.82;;
68940;SDS011;55982;51.476;7.552;2023-01-05T16:15:17;31.95;;;8.90;;
68940;SDS011;55982;51.476;7.552;2023-01-05T16:17:45;31.05;;;9.30;;
68940;SDS011;55982;51.476;7.552;2023-01-05T16:20:14;27.70;;;8.70;;
68940;SDS011;55982;51.476;7.552;2023-01-05T16:22:45;29.23;;;8.85;;
68940;SDS011;55982;51.476;7.552;2023-01-05T16:25:25;31.00;;;9.55;;
68940;SDS011;55982;51.476;7.552;2023-01-05T16:28:02;40.63;;;10.38;;
68940;SDS011;55982;51.476;7.552;2023-01-05T16:30:35;35.08;;;9.15;;
68940;SDS011;55982;51.476;7.552;2023-01-05T16:33:59;28.77;;;9.35;;
68940;SDS011;55982;51.476;7.552;2023-01-05T16:35:57;39.80;;;9.48;;
68940;SDS011;55982;51.476;7.552;2023-01-05T16:38:42;30.58;;;9.48;;
68940;SDS011;55982;51.476;7.552;2023-01-05T16:41:12;27.02;;;8.93;;
68940;SDS011;55982;51.476;7.552;2023-01-05T16:46:34;36.67;;;9.30;;
68940;SDS011;55982;51.476;7.552;2023-01-05T16:49:45;36.70;;;9.30;;
68940;SDS011;55982;51.476;7.552;2023-01-05T16:54:32;29.13;;;7.97;;
68940;SDS011;55982;51.476;7.552;2023-01-05T16:59:57;34.20;;;9.15;;
68940;SDS011;55982;51.476;7.552;2023-01-05T17:05:09;31.05;;;8.93;;
68940;SDS011;55982;51.476;7.552;2023-01-05T17:07:38;40.45;;;8.95;;
68940;SDS011;55982;51.476;7.552;2023-01-05T17:10:13;38.60;;;9.82;;
68940;SDS011;55982;51.476;7.552;2023-01-05T17:12:42;34.03;;;9.18;;
68940;SDS011;55982;51.476;7.552;2023-01-05T17:15:12;41.50;;;9.65;;
68940;SDS011;55982;51.476;7.552;2023-01-05T17:17:42;46.38;;;10.02;;
68940;SDS011;55982;51.476;7.552;2023-01-05T17:20:10;41.38;;;8.60;;
68940;SDS011;55982;51.476;7.552;2023-01-05T17:22:36;38.28;;;9.23;;
68940;SDS011;55982;51.476;7.552;2023-01-05T17:25:01;37.10;;;8.25;;
68940;SDS011;55982;51.476;7.552;2023-01-05T17:27:27;44.13;;;8.77;;
68940;SDS011;55982;51.476;7.552;2023-01-05T17:29:52;39.60;;;8.60;;
68940;SDS011;55982;51.476;7.552;2023-01-05T17:32:18;36.00;;;8.07;;
68940;SDS011;55982;51.476;7.552;2023-01-05T17:34:46;35.15;;;8.85;;
68940;SDS011;55982;51.476;7.552;2023-01-05T17:37:14;48.67;;;8.50;;
68940;SDS011;55982;51.476;7.552;2023-01-05T17:39:40;41.47;;;8.88;;
68940;SDS011;55982;51.476;7.552;2023-01-05T17:42:06;47.88;;;9.10;;
68940;SDS011;55982;51.476;7.552;2023-01-05T17:44:50;38.67;;;9.23;;
68940;SDS011;55982;51.476;7.552;2023-01-05T17:47:15;38.67;;;10.38;;
68940;SDS011;55982;51.476;7.552;2023-01-05T17:49:41;47.50;;;9.00;;